KIPT/IPT METAR and TAF weather

Enter ICAO airport designator
Station Type Date Time Source
KIPT METAR 2020/07/08 21:54 UTC NOAA

KIPT 082154Z 18013G19KT 10SM -RA SCT065 SCT085 BKN110 27/19 A2989 RMK AO2 LTG DSNT ALQDS RAB46 SLP116 P0000 T02720189


Station Type Date Time Source
KIPT Decoded METAR 2020/07/08 21:54 UTC NOAA

WILLIAMSPORT-LYCOMING COUNTY, PA, United States (KIPT) 41-15N 076-55W 164M
Jul 08, 2020 - 05:54 PM EDT / 2020.07.08 2154 UTC
Wind: from the S (180 degrees) at 15 MPH (13 KT) gusting to 22 MPH (19 KT):0
Visibility: 10 mile(s):0
Sky conditions: mostly cloudy
Weather: light rain; Lightning observed
Precipitation last hour: A trace
Temperature: 81.0 F (27.2 C)
Dew Point: 66.0 F (18.9 C)
Relative Humidity: 60%
Pressure (altimeter): 29.89 in. Hg (1012 hPa)
ob: KIPT 082154Z 18013G19KT 10SM -RA SCT065 SCT085 BKN110 27/19 A2989 RMK AO2 LTG DSNT ALQDS RAB46 SLP116 P0000 T02720189
cycle: 22

Station Type Date Time Source
KIPT TAF 2020/07/08 22:42 UTC NOAA

TAF
AMD KIPT 082141Z 0822/0918 16004KT P6SM VCTS SCT040CB BKN100
FM090300 00000KT P6SM SCT035
FM090900 00000KT 5SM BR OVC025

Example: see airport list